Ellenboro, WV

7:03 PM EST on January 27, 2015 (GMT -0500)
Newport | Change Station
CLOSE
Current Station
Personal Weather Station
Location: Newport, OH
Elevation: 640 ft
Nearby Weather Stations

Elev 640 ft 39.39 °N, 81.23 °W | Updated 3 minutes ago

Snow
Snow
23.1 °F
Feels Like 23 °F
N
1.0
Wind Variable Wind from West
Gusts 1.0 mph

Today
High -- | Low -- °F
--% Chance of Precip.
Yesterday
High -- | Low -- °F
Precip. -- in
7:35 AM 5:38 PM
First Quarter, 59% visible
Pressure 30.19 in
Visibility 9.0 miles
Clouds Mostly Cloudy 3800 ft
Overcast 4700 ft
Windchill 23 °F
Dew Point 19 °F
Humidity 85%
Rainfall 0.00 in
Snow Depth Not available.
UV 0 out of 12
Pollen .10 out of 12
Air Quality Not available.
Flu Activity Not available.
METAR KPKB 272353Z 31005KT 9SM BKN038 OVC047 M06/M09 A3015 RMK AO2 SNE02B32E51 SLP222 P0000 60000 T10561089 11039 21056 51028

More Conditions Fewer Conditions

Pressure 30.19 in
Visibility 9.0 miles
Clouds Mostly Cloudy 3800 ft
Overcast 4700 ft
Windchill 23 °F
Dew Point 19 °F
Humidity 85%
Rainfall 0.00 in
Snow Depth Not available.
UV 0 out of 12
Pollen .10 out of 12
Air Quality Not available.
Flu Activity Not available.
METAR KPKB 272353Z 31005KT 9SM BKN038 OVC047 M06/M09 A3015 RMK AO2 SNE02B32E51 SLP222 P0000 60000 T10561089 11039 21056 51028

More Conditions Fewer Conditions

10-Day Weather Forecast

Almanac

Astronomy

Jan. 27, 2015 Rise Set
Actual Time
Civil Twilight
Nautical Twilight
Astronomical Twilight
Moon
Length of Visible Light
Length of Day
Tomorrow will be .
, % of the Moon is Illuminated

Today's Extremes

State Highs State Lows

Community

WunderPhotos

Upload Photos

1,790,987 photos uploaded!

WunderBlogs® & News

Nearby

Air Quality

  Air Quality AQ Index Pollutant
Not available.

Snow Depth

Station Depth Elevation

Earthquake Activity

City Distance Mag. Time & Date
Minimum magnitude displayed is 2.5.

Coastal Water Temperatures

Place Temperature

Nearby Weather Stations